地図

経路データ

SID SEASON NUMBER BASIN SUBBASIN NAME ISO_TIME NATURE LAT LON WMO_WIND WMO_PRES WMO_AGENCY TRACK_TYPE DIST2LAND LANDFALL IFLAG USA_AGENCY USA_ATCF_ID USA_LAT USA_LON USA_RECORD USA_STATUS USA_WIND USA_PRES USA_SSHS USA_R34_NE USA_R34_SE USA_R34_SW USA_R34_NW USA_R50_NE USA_R50_SE USA_R50_SW USA_R50_NW USA_R64_NE USA_R64_SE USA_R64_SW USA_R64_NW USA_POCI USA_ROCI USA_RMW USA_EYE TOKYO_LAT TOKYO_LON TOKYO_GRADE TOKYO_WIND TOKYO_PRES TOKYO_R50_DIR TOKYO_R50_LONG TOKYO_R50_SHORT TOKYO_R30_DIR TOKYO_R30_LONG TOKYO_R30_SHORT TOKYO_LAND CMA_LAT CMA_LON CMA_CAT CMA_WIND CMA_PRES HKO_LAT HKO_LON HKO_CAT HKO_WIND HKO_PRES NEWDELHI_LAT NEWDELHI_LON NEWDELHI_GRADE NEWDELHI_WIND NEWDELHI_PRES NEWDELHI_CI NEWDELHI_DP NEWDELHI_POCI REUNION_LAT REUNION_LON REUNION_TYPE REUNION_WIND REUNION_PRES REUNION_TNUM REUNION_CI REUNION_RMW REUNION_R34_NE REUNION_R34_SE REUNION_R34_SW REUNION_R34_NW REUNION_R50_NE REUNION_R50_SE REUNION_R50_SW REUNION_R50_NW REUNION_R64_NE REUNION_R64_SE REUNION_R64_SW REUNION_R64_NW BOM_LAT BOM_LON BOM_TYPE BOM_WIND BOM_PRES BOM_TNUM BOM_CI BOM_RMW BOM_R34_NE BOM_R34_SE BOM_R34_SW BOM_R34_NW BOM_R50_NE BOM_R50_SE BOM_R50_SW BOM_R50_NW BOM_R64_NE BOM_R64_SE BOM_R64_SW BOM_R64_NW BOM_ROCI BOM_POCI BOM_EYE BOM_POS_METHOD BOM_PRES_METHOD NADI_LAT NADI_LON NADI_CAT NADI_WIND NADI_PRES WELLINGTON_LAT WELLINGTON_LON WELLINGTON_WIND WELLINGTON_PRES DS824_LAT DS824_LON DS824_STAGE DS824_WIND DS824_PRES TD9636_LAT TD9636_LON TD9636_STAGE TD9636_WIND TD9636_PRES TD9635_LAT TD9635_LON TD9635_WIND TD9635_PRES TD9635_ROCI NEUMANN_LAT NEUMANN_LON NEUMANN_CLASS NEUMANN_WIND NEUMANN_PRES MLC_LAT MLC_LON MLC_CLASS MLC_WIND MLC_PRES USA_GUST BOM_GUST BOM_GUST_PER REUNION_GUST REUNION_GUST_PER USA_SEAHGT USA_SEARAD_NE USA_SEARAD_SE USA_SEARAD_SW USA_SEARAD_NW STORM_SPEED STORM_DIR
1912324N08080 1912 64 NI BB NOT_NAMED 1912-11-19 00:00:00 TS 8.00000 79.8000 main 0 0 _________O____ -1 8.00000 79.8000 TC 64 11 286
1912324N08080 1912 64 NI BB NOT_NAMED 1912-11-19 03:00:00 TS 8.15524 79.2601 main 44 44 _________PO___ -1 8.23286 78.9901 TC 64 8.00000 79.8000 4 13 288
1912324N08080 1912 64 NI BB NOT_NAMED 1912-11-19 06:00:00 TS 8.40854 78.5290 main 44 0 _________OP___ -1 8.50000 78.2000 TC 64 8.27135 79.0224 4 16 291
1912324N08080 1912 64 NI AS NOT_NAMED 1912-11-19 09:00:00 TS 8.71000 77.7865 main 0 0 _________PP___ -1 8.82731 77.4424 TC 64 8.55359 78.2454 4 16 294
1912324N08080 1912 64 NI AS NOT_NAMED 1912-11-19 12:00:00 TS 9.02951 77.0854 main 0 0 _________OP___ -1 9.20000 76.7000 TC 64 8.85902 77.4708 4 16 295
1912324N08080 1912 64 NI AS NOT_NAMED 1912-11-19 15:00:00 TS 9.38869 76.3211 main 0 0 _________PO___ -1 9.57739 75.9423 TC 64 9.20000 76.7000 4 17 297
1912324N08080 1912 64 NI AS NOT_NAMED 1912-11-19 18:00:00 TS 9.79317 75.5680 main 69 69 _________OP___ -1 10.0000 75.2000 TC 64 9.58634 75.9361 4 17 300
1912324N08080 1912 64 NI AS NOT_NAMED 1912-11-19 21:00:00 TS 10.2474 74.8335 main 137 132 _________PP___ -1 10.4774 74.4774 TC 64 10.0173 75.1896 4 17 304
1912324N08080 1912 64 NI AS NOT_NAMED 1912-11-20 00:00:00 TS 10.7448 74.1367 main 186 179 _________OP___ -1 11.0000 73.8000 TC 64 10.4896 74.4733 4 17 308
1912324N08080 1912 64 NI AS NOT_NAMED 1912-11-20 03:00:00 TS 11.2674 73.4886 main 201 201 _________PO___ -1 11.5348 73.1772 TC 64 11.0000 73.8000 4 16 311
1912324N08080 1912 64 NI AS NOT_NAMED 1912-11-20 06:00:00 TS 11.8113 72.8706 main 234 234 _________OP___ -1 12.1000 72.6000 TC 64 11.5225 73.1412 4 16 313
1912324N08080 1912 64 NI AS NOT_NAMED 1912-11-20 09:00:00 TS 12.3836 72.2749 main 275 275 _________PP___ -1 12.6850 72.0199 TC 64 12.0823 72.5299 4 16 317
1912324N08080 1912 64 NI AS NOT_NAMED 1912-11-20 12:00:00 TS 12.9879 71.7393 main 326 321 _________OP___ -1 13.3000 71.5000 TC 64 12.6759 71.9787 4 16 322
1912324N08080 1912 64 NI AS NOT_NAMED 1912-11-20 15:00:00 TS 13.6175 71.2774 main 326 321 _________PO___ -1 13.9349 71.0548 TC 64 13.3000 71.5000 4 16 327
1912324N08080 1912 64 NI AS NOT_NAMED 1912-11-20 18:00:00 TS 14.2912 70.8693 main 334 334 _________OP___ -1 14.6000 70.7000 TC 64 13.9823 71.0387 4 16 332
1912324N08080 1912 64 NI AS NOT_NAMED 1912-11-20 21:00:00 TS 15.0085 70.5231 main 343 332 _________PP___ -1 15.3299 70.3901 TC 64 14.6870 70.6560 4 15 338
1912324N08080 1912 64 NI AS NOT_NAMED 1912-11-21 00:00:00 TS 15.6866 70.2851 main 332 329 _________OP___ -1 16.0000 70.2000 TC 64 15.3731 70.3702 4 13 345
1912324N08080 1912 64 NI AS NOT_NAMED 1912-11-21 03:00:00 TS 16.2437 70.1699 main 332 324 _________PO___ -1 16.4874 70.1398 TC 64 16.0000 70.2000 4 10 353
1912324N08080 1912 64 NI AS NOT_NAMED 1912-11-21 06:00:00 TS 16.7172 70.1592 main 324 307 _________OP___ -1 16.9000 70.2000 TC 64 16.5344 70.1184 4 9 3
1912324N08080 1912 64 NI AS NOT_NAMED 1912-11-21 09:00:00 TS 17.1846 70.2295 main 307 272 _________PP___ -1 17.3649 70.3050 TC 64 17.0042 70.1540 4 9 14
1912324N08080 1912 64 NI AS NOT_NAMED 1912-11-21 12:00:00 TS 17.6110 70.3938 main 272 244 _________OP___ -1 17.8000 70.5000 TC 64 17.4219 70.2877 4 9 26
1912324N08080 1912 64 NI AS NOT_NAMED 1912-11-21 15:00:00 TS 17.9862 70.6350 main 244 211 _________PO___ -1 18.1725 70.7700 TC 55 17.8000 70.5000 4 9 36
1912324N08080 1912 64 NI AS NOT_NAMED 1912-11-21 18:00:00 TS 18.2998 70.9127 main 211 171 _________OP___ -1 18.5000 71.1000 TC 47 18.1497 70.7723 4 8 42
1912324N08080 1912 64 NI AS NOT_NAMED 1912-11-21 21:00:00 TS 18.6091 71.2325 main 171 136 _________PP___ -1 18.8051 71.4473 TC 38 18.4785 71.0894 4 9 46
1912324N08080 1912 64 NI AS NOT_NAMED 1912-11-22 00:00:00 TS 18.8953 71.5578 main 126 104 _________OP___ -1 19.1000 71.8000 TC 30 18.7930 71.4368 4 7 48
1912324N08080 1912 64 NI AS NOT_NAMED 1912-11-22 03:00:00 NR 19.1000 71.8000 main 104 __________O___ -1 TC 19.1000 71.8000 1 6 48

IBTrACS Databaseについて

本データベースは、米国NOAAが公開する1842年以降の世界の熱帯低気圧のベストトラックデータアーカイブInternational Best Track Archive for Climate Stewardship (IBTrACS)を、ウェブで閲覧しやすい形式に変換したものです。

最終更新日:2021-10-21